Weather History for Sterling Muni, Sterling, CO, CO

Change the Weather History Date:

Thursday, April 17, 2014

  Actual Average Record
Temperature  
Mean Temperature 50 °F -  
Max Temperature 68 °F 65 °F 68 °F (2014)
Min Temperature 32 °F 34 °F 26 °F (2013)
Degree Days  
Heating Degree Days 15    
Moisture  
Dew Point 36 °F    
Average Humidity 67    
Maximum Humidity 100    
Minimum Humidity 21    
Precipitation  
Precipitation 0.00 in - - ()
Sea Level Pressure  
Sea Level Pressure 30.07 in    
Wind  
Wind Speed 9 mph (SSE)    
Max Wind Speed 17 mph    
Max Gust Speed 24 mph    
Visibility 9 miles    
Events      
Averages and records for this station are not official NWS values.
T = Trace of Precipitation, MM = Missing Value Source: NWS Daily Summary

Daily Weather History Graph

Daily Weather History Graph

Search for Another Location

Airport:

Trip Planner

Search our weather history database for the weather conditions in past years. The results will help you decide how hot, cold, wet, or windy it might be!

Date:

Astronomy

Apr. 17, 2014 Rise Set
Actual Time 6:11 AM MDT 7:34 PM MDT
Civil Twilight 5:42 AM MDT 8:03 PM MDT
Nautical Twilight 5:08 AM MDT 8:37 PM MDT
Astronomical Twilight 4:32 AM MDT 9:13 PM MDT
Moon 10:23 PM MDT (4/17) 7:44 AM MDT (4/17)
Length of Visible Light 14h 20m
Length of Day
13h 23m
Waning Gibbous, 93% of the Moon is Illuminated
Apr 17
Waning Gibbous
Apr 22
Last Quarter
Apr 29
New
May 6
First Quarter
May 14
Full

Hourly Weather History & Observations

Time (MDT) Temp. Windchill Dew Point Humidity Pressure Visibility Wind Dir Wind Speed Gust Speed Precip Events Conditions
12:10 AM 37.4 °F 33.8 °F 33.8 °F 87% 30.14 in 10.0 mi NE 4.6 mph - N/A   Overcast
12:30 AM 37.4 °F 32.8 °F 33.8 °F 87% 30.14 in 10.0 mi NE 5.8 mph - N/A   Overcast
12:50 AM 35.6 °F 29.9 °F 33.8 °F 93% 30.14 in 10.0 mi ENE 6.9 mph - N/A   Overcast
1:10 AM 35.6 °F 30.7 °F 32.0 °F 87% 30.13 in 10.0 mi NE 5.8 mph - N/A   Overcast
1:30 AM 35.6 °F 32.8 °F 32.0 °F 87% 30.13 in 10.0 mi ENE 3.5 mph - N/A   Overcast
1:50 AM 35.6 °F 29.9 °F 32.0 °F 87% 30.13 in 10.0 mi NE 6.9 mph - N/A   Overcast
2:10 AM 33.8 °F 27.7 °F 32.0 °F 93% 30.13 in 10.0 mi NE 6.9 mph - N/A   Overcast
2:30 AM 32.0 °F 26.4 °F 32.0 °F 100% 30.13 in 7.0 mi NE 5.8 mph - N/A   Scattered Clouds
2:50 AM 32.0 °F 26.4 °F 32.0 °F 100% 30.13 in 7.0 mi NE 5.8 mph - N/A   Clear
3:10 AM 32.0 °F 25.6 °F 32.0 °F 100% 30.13 in 7.0 mi ENE 6.9 mph - N/A   Scattered Clouds
3:30 AM 33.8 °F 29.6 °F 32.0 °F 93% 30.15 in 7.0 mi SE 4.6 mph - N/A   Mostly Cloudy
3:50 AM 35.6 °F 29.9 °F 33.8 °F 93% 30.14 in 7.0 mi SSE 6.9 mph - N/A   Overcast
4:10 AM 35.6 °F 30.7 °F 33.8 °F 93% 30.14 in 5.0 mi SE 5.8 mph - N/A   Overcast
4:30 AM 35.6 °F 30.7 °F 33.8 °F 93% 30.14 in 5.0 mi ESE 5.8 mph - N/A   Overcast
4:50 AM 35.6 °F 29.9 °F 35.6 °F 100% 30.14 in 5.0 mi ESE 6.9 mph - N/A   Overcast
5:10 AM 35.6 °F 29.9 °F 35.6 °F 100% 30.13 in 5.0 mi ESE 6.9 mph - N/A   Overcast
5:30 AM 35.6 °F 28.6 °F 35.6 °F 100% 30.14 in 5.0 mi SE 9.2 mph - N/A   Overcast
5:50 AM 35.6 °F 28.6 °F 35.6 °F 100% 30.14 in 5.0 mi SE 9.2 mph - N/A   Overcast
6:10 AM 35.6 °F 28.6 °F 35.6 °F 100% 30.14 in 5.0 mi SSE 9.2 mph - N/A   Overcast
6:30 AM 35.6 °F 28.6 °F 35.6 °F 100% 30.14 in 5.0 mi SSE 9.2 mph - N/A   Overcast
6:50 AM 35.6 °F 29.2 °F 35.6 °F 100% 30.15 in 5.0 mi South 8.1 mph - N/A   Overcast
7:10 AM 35.6 °F 29.9 °F 35.6 °F 100% 30.16 in 7.0 mi SSE 6.9 mph - N/A   Overcast
7:30 AM 35.6 °F 27.5 °F 35.6 °F 100% 30.16 in 5.0 mi South 11.5 mph - N/A   Overcast
7:50 AM 37.4 °F 31.4 °F 35.6 °F 93% 30.16 in 7.0 mi SSE 8.1 mph - N/A   Overcast
8:10 AM 37.4 °F 31.4 °F 35.6 °F 93% 30.15 in 10.0 mi SSE 8.1 mph - N/A   Overcast
8:30 AM 39.2 °F 32.5 °F 35.6 °F 87% 30.15 in 10.0 mi SSE 10.4 mph - N/A   Overcast
8:50 AM 41.0 °F 34.7 °F 37.4 °F 87% 30.15 in 10.0 mi SSE 10.4 mph - N/A   Overcast
9:10 AM 42.8 °F 36.2 °F 37.4 °F 81% 30.15 in 10.0 mi SSE 12.7 mph - N/A   Overcast
9:30 AM 42.8 °F 36.2 °F 37.4 °F 81% 30.14 in 10.0 mi SSE 12.7 mph 17.3 mph N/A   Mostly Cloudy
10:10 AM 46.4 °F 40.1 °F 39.2 °F 76% 30.14 in 10.0 mi SSE 15.0 mph - N/A   Scattered Clouds
10:30 AM 50.0 °F - 41.0 °F 71% 30.13 in 10.0 mi SSE 13.8 mph - N/A   Scattered Clouds
10:50 AM 50.0 °F - 41.0 °F 71% 30.13 in 10.0 mi SE 17.3 mph 23.0 mph N/A   Scattered Clouds
11:10 AM 50.0 °F - 41.0 °F 71% 30.12 in 10.0 mi SE 17.3 mph 24.2 mph N/A   Clear
11:30 AM 50.0 °F - 41.0 °F 71% 30.12 in 10.0 mi SE 17.3 mph 23.0 mph N/A   Clear
11:50 AM 51.8 °F - 41.0 °F 67% 30.11 in 10.0 mi SE 15.0 mph 21.9 mph N/A   Clear
12:10 PM 53.6 °F - 41.0 °F 62% 30.09 in 10.0 mi ESE 15.0 mph 19.6 mph N/A   Clear
12:30 PM 57.2 °F - 42.8 °F 59% 30.08 in 10.0 mi ESE 15.0 mph - N/A   Clear
12:50 PM 59.0 °F - 42.8 °F 55% 30.06 in 10.0 mi SSE 11.5 mph 24.2 mph N/A   Scattered Clouds
1:10 PM 62.6 °F - 37.4 °F 39% 30.05 in 10.0 mi SSW 15.0 mph 20.7 mph N/A   Scattered Clouds
1:30 PM 62.6 °F - 37.4 °F 39% 30.04 in 10.0 mi SSE 12.7 mph 19.6 mph N/A   Scattered Clouds
1:50 PM 64.4 °F - 39.2 °F 40% 30.04 in 10.0 mi South 15.0 mph 21.9 mph N/A   Scattered Clouds
2:10 PM 62.6 °F - 37.4 °F 39% 30.03 in 10.0 mi SE 12.7 mph - N/A   Clear
2:30 PM 64.4 °F - 37.4 °F 37% 30.02 in 10.0 mi SE 15.0 mph 20.7 mph N/A   Mostly Cloudy
2:50 PM 68.0 °F - 32.0 °F 26% 30.01 in 10.0 mi West 12.7 mph 21.9 mph N/A   Scattered Clouds
3:10 PM 66.2 °F - 32.0 °F 28% 30.01 in 10.0 mi NNW 4.6 mph - N/A   Scattered Clouds
3:30 PM 68.0 °F - 30.2 °F 24% 30.00 in 10.0 mi West 6.9 mph - N/A   Clear
3:50 PM 68.0 °F - 32.0 °F 26% 30.00 in 10.0 mi WSW 10.4 mph - N/A   Scattered Clouds
4:10 PM 68.0 °F - 28.4 °F 23% 29.99 in 10.0 mi SW 8.1 mph - N/A   Scattered Clouds
4:30 PM 68.0 °F - 28.4 °F 23% 29.99 in 10.0 mi West 5.8 mph - N/A   Scattered Clouds
4:50 PM 68.0 °F - 26.6 °F 21% 29.99 in 10.0 mi West 9.2 mph - N/A   Clear
5:10 PM 68.0 °F - 28.4 °F 23% 29.98 in 10.0 mi South 6.9 mph - N/A   Clear
5:30 PM 68.0 °F - 28.4 °F 23% 29.98 in 10.0 mi SSW 4.6 mph - N/A   Clear
5:50 PM 68.0 °F - 30.2 °F 24% 29.97 in 10.0 mi SSW 8.1 mph - N/A   Clear
6:10 PM 66.2 °F - 33.8 °F 30% 29.97 in 10.0 mi South 10.4 mph 16.1 mph N/A   Clear
6:30 PM 64.4 °F - 33.8 °F 32% 29.97 in 10.0 mi SSW 12.7 mph - N/A   Clear
6:50 PM 62.6 °F - 33.8 °F 34% 29.97 in 10.0 mi SSW 12.7 mph 20.7 mph N/A   Clear
7:10 PM 60.8 °F - 35.6 °F 39% 29.97 in 10.0 mi South 17.3 mph 20.7 mph N/A   Clear
7:30 PM 59.0 °F - 35.6 °F 42% 29.97 in 10.0 mi South 15.0 mph - N/A   Clear
7:50 PM 57.2 °F - 35.6 °F 44% 29.98 in 10.0 mi South 11.5 mph - N/A   Clear
8:10 PM 55.4 °F - 35.6 °F 47% 29.99 in 10.0 mi South 12.7 mph - N/A   Clear
8:30 PM 55.4 °F - 37.4 °F 51% 30.00 in 10.0 mi South 13.8 mph - N/A   Clear
8:50 PM 53.6 °F - 37.4 °F 54% 30.01 in 10.0 mi South 12.7 mph - N/A   Clear
9:10 PM 53.6 °F - 39.2 °F 58% 30.01 in 10.0 mi South 15.0 mph - N/A   Clear
9:30 PM 51.8 °F - 39.2 °F 62% 30.02 in 10.0 mi South 15.0 mph - N/A   Clear
9:50 PM 51.8 °F - 39.2 °F 62% 30.02 in 10.0 mi South 13.8 mph - N/A   Clear
10:10 PM 51.8 °F - 39.2 °F 62% 30.02 in 10.0 mi SSW 16.1 mph - N/A   Clear
10:30 PM 50.0 °F - 39.2 °F 66% 30.02 in 10.0 mi SSW 13.8 mph - N/A   Clear
10:50 PM 50.0 °F - 39.2 °F 66% 30.02 in 10.0 mi SSW 13.8 mph - N/A   Clear
11:10 PM 48.2 °F - 39.2 °F 71% 30.02 in 10.0 mi SSW 12.7 mph - N/A   Clear
11:30 PM 46.4 °F 41.5 °F 39.2 °F 76% 30.02 in 10.0 mi SSW 10.4 mph - N/A   Clear
11:50 PM 46.4 °F 42.4 °F 39.2 °F 76% 30.02 in 10.0 mi SSW 8.1 mph - N/A   Clear